createdAt,value
2016-12-26T00:00:01.155Z,923.59
2016-12-26T00:00:18.327Z,923.58
2016-12-26T00:00:35.510Z,923.56
2016-12-26T00:00:52.692Z,923.61
2016-12-26T00:01:09.871Z,923.63
2016-12-26T00:01:27.055Z,923.59
2016-12-26T00:01:44.260Z,923.6
2016-12-26T00:02:01.462Z,923.61
2016-12-26T00:02:18.639Z,923.59
2016-12-26T00:02:35.826Z,923.63
2016-12-26T00:02:53.395Z,923.65
2016-12-26T00:03:10.580Z,923.69
2016-12-26T00:03:27.768Z,923.69
2016-12-26T00:03:44.956Z,923.65
2016-12-26T00:04:02.111Z,923.66
2016-12-26T00:04:19.280Z,923.64
2016-12-26T00:04:36.426Z,923.67
2016-12-26T00:04:53.593Z,923.68
2016-12-26T00:05:10.761Z,923.68
2016-12-26T00:05:27.966Z,923.69
2016-12-26T00:05:45.157Z,923.67
2016-12-26T00:06:02.918Z,923.71
2016-12-26T00:06:20.660Z,923.7
2016-12-26T00:06:37.840Z,923.72
2016-12-26T00:06:55.017Z,923.71
2016-12-26T00:07:12.191Z,923.71
2016-12-26T00:07:29.380Z,923.72
2016-12-26T00:07:46.554Z,923.71
2016-12-26T00:08:03.740Z,923.71
2016-12-26T00:08:20.918Z,923.79
2016-12-26T00:08:38.104Z,923.78
2016-12-26T00:08:55.258Z,923.76
2016-12-26T00:09:12.446Z,923.77
2016-12-26T00:09:30.785Z,923.76
2016-12-26T00:09:47.964Z,923.79
2016-12-26T00:10:05.160Z,923.77
2016-12-26T00:10:22.354Z,923.77
2016-12-26T00:10:39.543Z,923.77
2016-12-26T00:10:56.723Z,923.73
2016-12-26T00:11:13.914Z,923.76
2016-12-26T00:11:31.096Z,923.79
2016-12-26T00:11:48.294Z,923.78
2016-12-26T00:12:05.480Z,923.76
2016-12-26T00:12:22.682Z,923.79
2016-12-26T00:12:39.902Z,923.81
2016-12-26T00:12:57.081Z,923.77
2016-12-26T00:13:14.275Z,923.81
2016-12-26T00:13:31.449Z,923.75
2016-12-26T00:13:48.658Z,923.8
2016-12-26T00:14:05.864Z,923.77
2016-12-26T00:14:23.042Z,923.76
2016-12-26T00:14:40.242Z,923.75
2016-12-26T00:14:57.423Z,923.78
2016-12-26T00:15:14.595Z,923.79
2016-12-26T00:15:31.761Z,923.8
2016-12-26T00:15:48.932Z,923.82
2016-12-26T00:16:06.119Z,923.77
2016-12-26T00:16:23.307Z,923.82
2016-12-26T00:16:40.496Z,923.83
2016-12-26T00:16:57.691Z,923.84
2016-12-26T00:17:14.849Z,923.81
2016-12-26T00:17:32.038Z,923.8
2016-12-26T00:17:49.205Z,923.81
2016-12-26T00:18:06.388Z,923.78
2016-12-26T00:18:23.578Z,923.77
2016-12-26T00:18:40.752Z,923.84
2016-12-26T00:18:57.923Z,923.82
2016-12-26T00:19:15.121Z,923.84
2016-12-26T00:19:32.296Z,923.84
2016-12-26T00:19:49.475Z,923.82
2016-12-26T00:20:06.644Z,923.84
2016-12-26T00:20:23.844Z,923.86
2016-12-26T00:20:40.994Z,923.84
2016-12-26T00:20:58.190Z,923.87
2016-12-26T00:21:15.383Z,923.9
2016-12-26T00:21:32.552Z,923.87
2016-12-26T00:21:49.725Z,923.9
2016-12-26T00:22:06.894Z,923.91
2016-12-26T00:22:24.060Z,923.91
2016-12-26T00:22:41.231Z,923.91
2016-12-26T00:22:58.378Z,923.87
2016-12-26T00:23:15.592Z,923.92
2016-12-26T00:23:32.759Z,923.93
2016-12-26T00:23:49.950Z,923.97
2016-12-26T00:24:07.135Z,923.95
2016-12-26T00:24:24.308Z,923.95
2016-12-26T00:24:41.482Z,923.9
2016-12-26T00:24:58.657Z,923.93
2016-12-26T00:25:15.810Z,923.92
2016-12-26T00:25:32.983Z,923.93
2016-12-26T00:25:50.731Z,923.93
2016-12-26T00:26:07.894Z,923.94
2016-12-26T00:26:25.083Z,923.93
2016-12-26T00:26:42.278Z,923.96
2016-12-26T00:27:00.030Z,923.96
2016-12-26T00:27:17.204Z,923.88
2016-12-26T00:27:34.358Z,923.95
2016-12-26T00:27:51.580Z,923.9
2016-12-26T00:28:08.754Z,923.9
2016-12-26T00:28:26.528Z,923.96
2016-12-26T00:28:43.693Z,923.92
2016-12-26T00:29:00.881Z,923.92
2016-12-26T00:29:18.062Z,923.9
2016-12-26T00:29:35.245Z,923.91
2016-12-26T00:29:52.414Z,923.94
2016-12-26T00:30:09.594Z,923.93
2016-12-26T00:30:26.779Z,923.94
2016-12-26T00:30:43.958Z,923.91
2016-12-26T00:31:01.114Z,923.88
2016-12-26T00:31:18.280Z,923.92
2016-12-26T00:31:35.458Z,923.9
2016-12-26T00:31:52.616Z,923.85
2016-12-26T00:32:09.797Z,923.89
2016-12-26T00:32:26.983Z,923.88
2016-12-26T00:32:44.153Z,923.86
2016-12-26T00:33:01.383Z,923.89
2016-12-26T00:33:18.560Z,923.87
2016-12-26T00:33:35.749Z,923.89
2016-12-26T00:33:52.932Z,923.87
2016-12-26T00:34:10.112Z,923.87
2016-12-26T00:34:27.272Z,923.88
2016-12-26T00:34:44.474Z,923.88
2016-12-26T00:35:01.655Z,923.86
2016-12-26T00:35:19.416Z,923.86
2016-12-26T00:35:36.581Z,923.88
2016-12-26T00:35:53.780Z,923.86
2016-12-26T00:36:10.994Z,923.85
2016-12-26T00:36:28.190Z,923.87
2016-12-26T00:36:45.382Z,923.87
2016-12-26T00:37:02.560Z,923.86
2016-12-26T00:37:19.748Z,923.86
2016-12-26T00:37:36.920Z,923.83
2016-12-26T00:37:54.096Z,923.82
2016-12-26T00:38:11.291Z,923.86
2016-12-26T00:38:28.460Z,923.81
2016-12-26T00:38:45.687Z,923.84
2016-12-26T00:39:02.874Z,923.88
2016-12-26T00:39:20.060Z,923.81
2016-12-26T00:39:37.276Z,923.88
2016-12-26T00:39:54.453Z,923.87
2016-12-26T00:40:12.209Z,923.87
2016-12-26T00:40:29.406Z,923.86
2016-12-26T00:40:46.589Z,923.9
2016-12-26T00:41:03.791Z,923.91
2016-12-26T00:41:20.944Z,923.92
2016-12-26T00:41:38.122Z,923.87
2016-12-26T00:41:55.302Z,923.91
2016-12-26T00:42:12.490Z,923.92
2016-12-26T00:42:29.669Z,923.93
2016-12-26T00:42:46.879Z,923.93
2016-12-26T00:43:04.055Z,923.9
2016-12-26T00:43:21.221Z,923.89
2016-12-26T00:43:38.398Z,923.89
2016-12-26T00:43:55.590Z,923.92
2016-12-26T00:44:12.764Z,923.92
2016-12-26T00:44:29.957Z,923.93
2016-12-26T00:44:47.125Z,923.92
2016-12-26T00:45:04.310Z,923.92
2016-12-26T00:45:21.502Z,923.91
2016-12-26T00:45:38.698Z,923.9
2016-12-26T00:45:55.885Z,923.92
2016-12-26T00:46:13.081Z,923.92
2016-12-26T00:46:30.245Z,923.93
2016-12-26T00:46:47.421Z,923.92
2016-12-26T00:47:04.601Z,923.93
2016-12-26T00:47:21.795Z,923.94
2016-12-26T00:47:38.953Z,923.88
2016-12-26T00:47:56.176Z,923.93
2016-12-26T00:48:13.346Z,923.93
2016-12-26T00:48:30.530Z,923.94
2016-12-26T00:48:47.704Z,923.95
2016-12-26T00:49:04.888Z,923.94
2016-12-26T00:49:22.059Z,923.92
2016-12-26T00:49:39.246Z,923.92
2016-12-26T00:49:56.394Z,923.94
2016-12-26T00:50:13.578Z,923.91
2016-12-26T00:50:31.309Z,923.9
2016-12-26T00:50:48.499Z,923.92
2016-12-26T00:51:05.723Z,923.93
2016-12-26T00:51:22.926Z,923.91
2016-12-26T00:51:40.089Z,923.87
2016-12-26T00:51:57.259Z,923.91
2016-12-26T00:52:14.449Z,923.86
2016-12-26T00:52:31.619Z,923.9
2016-12-26T00:52:48.803Z,923.86
2016-12-26T00:53:06.035Z,923.86
2016-12-26T00:53:23.224Z,923.89
2016-12-26T00:53:40.411Z,923.85
2016-12-26T00:53:57.608Z,923.89
2016-12-26T00:54:14.765Z,923.87
2016-12-26T00:54:31.914Z,923.88
2016-12-26T00:54:49.121Z,923.88
2016-12-26T00:55:06.331Z,923.89
2016-12-26T00:55:23.515Z,923.9
2016-12-26T00:55:40.703Z,923.92
2016-12-26T00:55:57.860Z,923.91
2016-12-26T00:56:15.032Z,923.88
2016-12-26T00:56:32.207Z,923.86
2016-12-26T00:56:49.392Z,923.86
2016-12-26T00:57:06.569Z,923.9
2016-12-26T00:57:23.745Z,923.91
2016-12-26T00:57:41.159Z,923.92
2016-12-26T00:57:58.333Z,923.95
2016-12-26T00:58:15.506Z,923.92
2016-12-26T00:58:32.668Z,923.97
2016-12-26T00:58:49.857Z,923.94
2016-12-26T00:59:07.053Z,923.92
2016-12-26T00:59:24.221Z,923.96
2016-12-26T00:59:41.392Z,923.96
2016-12-26T00:59:59.158Z,923.93
2016-12-26T01:00:16.321Z,923.97
2016-12-26T01:00:33.538Z,923.99
2016-12-26T01:00:50.706Z,923.97
2016-12-26T01:01:07.898Z,923.97
2016-12-26T01:01:25.046Z,923.99
2016-12-26T01:01:42.217Z,923.99
2016-12-26T01:01:59.397Z,923.97
2016-12-26T01:02:16.577Z,923.99
2016-12-26T01:02:33.747Z,923.98
2016-12-26T01:02:50.938Z,924.01
2016-12-26T01:03:08.095Z,924.01
2016-12-26T01:03:25.276Z,924.02
2016-12-26T01:03:42.464Z,924
2016-12-26T01:03:59.652Z,924.03
2016-12-26T01:04:16.857Z,924.01
2016-12-26T01:04:34.011Z,923.98
2016-12-26T01:04:51.185Z,924.03
2016-12-26T01:05:08.935Z,923.99
2016-12-26T01:05:26.117Z,924
2016-12-26T01:05:43.288Z,924
2016-12-26T01:06:00.477Z,924
2016-12-26T01:06:17.654Z,924.04
2016-12-26T01:06:34.845Z,923.98
2016-12-26T01:06:52.035Z,923.98
2016-12-26T01:07:09.242Z,924.01
2016-12-26T01:07:26.418Z,924.03
2016-12-26T01:07:43.636Z,923.99
2016-12-26T01:08:00.802Z,924.01
2016-12-26T01:08:17.967Z,924.03
2016-12-26T01:08:35.187Z,924.06
2016-12-26T01:08:52.381Z,924.01
2016-12-26T01:09:09.571Z,924.02
2016-12-26T01:09:26.748Z,924.02
2016-12-26T01:09:43.892Z,924.08
2016-12-26T01:10:01.095Z,924.01
2016-12-26T01:10:18.262Z,924.07
2016-12-26T01:10:35.420Z,924.06
2016-12-26T01:10:52.604Z,924.05
2016-12-26T01:11:09.779Z,924.04
2016-12-26T01:11:26.946Z,924.04
2016-12-26T01:11:44.129Z,924.08
2016-12-26T01:12:01.301Z,924.03
2016-12-26T01:12:18.462Z,924.03
2016-12-26T01:12:35.631Z,924.04
2016-12-26T01:12:52.785Z,924.06
2016-12-26T01:13:09.965Z,924.05
2016-12-26T01:13:27.145Z,924.04
2016-12-26T01:13:44.336Z,924.03
2016-12-26T01:14:01.532Z,924.08
2016-12-26T01:14:18.681Z,924.07
2016-12-26T01:14:35.872Z,924.11
2016-12-26T01:14:53.041Z,924.09
2016-12-26T01:15:10.230Z,924.08
2016-12-26T01:15:27.382Z,924.06
2016-12-26T01:15:44.538Z,924.05
2016-12-26T01:16:01.712Z,924.01
2016-12-26T01:16:18.874Z,924.02
2016-12-26T01:16:36.078Z,924.03
2016-12-26T01:16:53.252Z,924.05
2016-12-26T01:17:10.444Z,924.03
2016-12-26T01:17:27.617Z,924.04
2016-12-26T01:17:44.909Z,924.02
2016-12-26T01:18:02.073Z,924.02
2016-12-26T01:18:19.291Z,924.06
2016-12-26T01:18:36.484Z,924.05
2016-12-26T01:18:53.654Z,924.07
2016-12-26T01:19:10.826Z,924.06
2016-12-26T01:19:27.995Z,924.05
2016-12-26T01:19:45.178Z,924.09
2016-12-26T01:20:02.374Z,924.09
2016-12-26T01:20:19.568Z,924.1
2016-12-26T01:20:36.761Z,924.12
2016-12-26T01:20:53.950Z,924.13
2016-12-26T01:21:11.155Z,924.13
2016-12-26T01:21:28.354Z,924.11
2016-12-26T01:21:45.560Z,924.14
2016-12-26T01:22:02.820Z,924.15
2016-12-26T01:22:20.075Z,924.15
2016-12-26T01:22:37.301Z,924.11
2016-12-26T01:22:54.472Z,924.14
2016-12-26T01:23:11.676Z,924.16
2016-12-26T01:23:28.861Z,924.18
2016-12-26T01:23:46.049Z,924.16
2016-12-26T01:24:03.218Z,924.15
2016-12-26T01:24:20.407Z,924.21
2016-12-26T01:24:37.568Z,924.19
2016-12-26T01:24:54.742Z,924.19
2016-12-26T01:25:11.916Z,924.19
2016-12-26T01:25:29.087Z,924.17
2016-12-26T01:25:46.295Z,924.19
2016-12-26T01:26:03.459Z,924.15
2016-12-26T01:26:20.609Z,924.18
2016-12-26T01:26:37.794Z,924.16
2016-12-26T01:26:54.962Z,924.17
2016-12-26T01:27:12.127Z,924.17
2016-12-26T01:27:29.335Z,924.11
2016-12-26T01:27:46.513Z,924.16
2016-12-26T01:28:03.701Z,924.19
2016-12-26T01:28:21.481Z,924.16
2016-12-26T01:28:38.680Z,924.15
2016-12-26T01:28:55.857Z,924.18
2016-12-26T01:29:13.060Z,924.18
2016-12-26T01:29:30.225Z,924.16
2016-12-26T01:29:47.406Z,924.13
2016-12-26T01:30:04.604Z,924.18
2016-12-26T01:30:22.366Z,924.14
2016-12-26T01:30:39.551Z,924.12
2016-12-26T01:30:56.737Z,924.14
2016-12-26T01:31:13.896Z,924.15
2016-12-26T01:31:31.096Z,924.15
2016-12-26T01:31:48.272Z,924.14
2016-12-26T01:32:05.488Z,924.12
2016-12-26T01:32:22.647Z,924.15
2016-12-26T01:32:39.815Z,924.13
2016-12-26T01:32:57.552Z,924.13
2016-12-26T01:33:14.732Z,924.11
2016-12-26T01:33:31.915Z,924.11
2016-12-26T01:33:49.119Z,924.1
2016-12-26T01:34:06.305Z,924.09
2016-12-26T01:34:23.487Z,924.13
2016-12-26T01:34:41.247Z,924.12
2016-12-26T01:34:58.441Z,924.12
2016-12-26T01:35:15.614Z,924.16
2016-12-26T01:35:32.809Z,924.12
2016-12-26T01:35:50.015Z,924.15
2016-12-26T01:36:07.220Z,924.18
2016-12-26T01:36:24.425Z,924.14
2016-12-26T01:36:41.585Z,924.18
2016-12-26T01:36:58.785Z,924.16
2016-12-26T01:37:15.962Z,924.2
2016-12-26T01:37:33.454Z,924.17
2016-12-26T01:37:50.619Z,924.16
2016-12-26T01:38:07.807Z,924.19
2016-12-26T01:38:24.999Z,924.14
2016-12-26T01:38:42.182Z,924.19
2016-12-26T01:38:59.354Z,924.17
2016-12-26T01:39:16.542Z,924.14
2016-12-26T01:39:33.744Z,924.17
2016-12-26T01:39:50.923Z,924.15
2016-12-26T01:40:08.100Z,924.14
2016-12-26T01:40:25.288Z,924.13
2016-12-26T01:40:42.457Z,924.15
2016-12-26T01:40:59.644Z,924.17
2016-12-26T01:41:16.827Z,924.18
2016-12-26T01:41:34.050Z,924.18
2016-12-26T01:41:51.241Z,924.15
2016-12-26T01:42:08.435Z,924.17
2016-12-26T01:42:25.617Z,924.14
2016-12-26T01:42:42.781Z,924.15
2016-12-26T01:42:59.957Z,924.12
2016-12-26T01:43:17.133Z,924.1
2016-12-26T01:43:34.315Z,924.15
2016-12-26T01:43:51.491Z,924.13
2016-12-26T01:44:08.665Z,924.15
2016-12-26T01:44:25.851Z,924.11
2016-12-26T01:44:43.022Z,924.14
2016-12-26T01:45:00.202Z,924.13
2016-12-26T01:45:17.390Z,924.1
2016-12-26T01:45:34.574Z,924.13
2016-12-26T01:45:51.787Z,924.08
2016-12-26T01:46:08.980Z,924.08
2016-12-26T01:46:26.155Z,924.1
2016-12-26T01:46:43.338Z,924.09
2016-12-26T01:47:00.514Z,924.11
2016-12-26T01:47:17.653Z,924.1
2016-12-26T01:47:34.991Z,924.13
2016-12-26T01:47:52.171Z,924.12
2016-12-26T01:48:09.342Z,924.15
2016-12-26T01:48:27.087Z,924.14
2016-12-26T01:48:44.248Z,924.14
2016-12-26T01:49:01.442Z,924.17
2016-12-26T01:49:18.625Z,924.17
2016-12-26T01:49:35.823Z,924.19
2016-12-26T01:49:52.994Z,924.19
2016-12-26T01:50:10.198Z,924.21
2016-12-26T01:50:27.389Z,924.23
2016-12-26T01:50:44.570Z,924.24
2016-12-26T01:51:01.781Z,924.2
2016-12-26T01:51:18.940Z,924.22
2016-12-26T01:51:36.092Z,924.25
2016-12-26T01:51:53.274Z,924.22
2016-12-26T01:52:10.479Z,924.21
2016-12-26T01:52:27.654Z,924.22
2016-12-26T01:52:44.818Z,924.21
2016-12-26T01:53:01.996Z,924.24
2016-12-26T01:53:19.154Z,924.22
2016-12-26T01:53:36.325Z,924.21
2016-12-26T01:53:53.501Z,924.18
2016-12-26T01:54:10.676Z,924.24
2016-12-26T01:54:27.859Z,924.2
2016-12-26T01:54:45.045Z,924.22
2016-12-26T01:55:02.220Z,924.18
2016-12-26T01:55:19.391Z,924.2
2016-12-26T01:55:36.588Z,924.23
2016-12-26T01:55:53.771Z,924.16
2016-12-26T01:56:10.949Z,924.17
2016-12-26T01:56:28.112Z,924.15
2016-12-26T01:56:45.268Z,924.17
2016-12-26T01:57:03.015Z,924.13
2016-12-26T01:57:20.198Z,924.14
2016-12-26T01:57:37.401Z,924.15
2016-12-26T01:57:54.593Z,924.12
2016-12-26T01:58:11.770Z,924.15
2016-12-26T01:58:28.950Z,924.16
2016-12-26T01:58:46.106Z,924.16
2016-12-26T01:59:03.257Z,924.13
2016-12-26T01:59:20.448Z,924.15
2016-12-26T01:59:37.614Z,924.18
2016-12-26T01:59:55.350Z,924.17
2016-12-26T02:00:12.501Z,924.13
2016-12-26T02:00:29.669Z,924.15
2016-12-26T02:00:46.847Z,924.17
2016-12-26T02:01:04.029Z,924.16
2016-12-26T02:01:21.222Z,924.21
2016-12-26T02:01:38.432Z,924.2
2016-12-26T02:01:55.658Z,924.12
2016-12-26T02:02:12.815Z,924.15
2016-12-26T02:02:29.977Z,924.14
2016-12-26T02:02:47.167Z,924.11
2016-12-26T02:03:04.346Z,924.1
2016-12-26T02:03:21.522Z,924.15
2016-12-26T02:03:38.672Z,924.14
2016-12-26T02:03:55.896Z,924.13
2016-12-26T02:04:13.073Z,924.11
2016-12-26T02:04:30.237Z,924.14
2016-12-26T02:04:47.431Z,924.13
2016-12-26T02:05:04.612Z,924.13
2016-12-26T02:05:21.779Z,924.1
2016-12-26T02:05:38.945Z,924.13
2016-12-26T02:05:56.123Z,924.12
2016-12-26T02:06:13.323Z,924.14
2016-12-26T02:06:30.508Z,924.15
2016-12-26T02:06:47.655Z,924.11
2016-12-26T02:07:04.840Z,924.13
2016-12-26T02:07:22.018Z,924.15
2016-12-26T02:07:39.354Z,924.11
2016-12-26T02:07:56.542Z,924.17
2016-12-26T02:08:14.028Z,924.2
2016-12-26T02:08:31.626Z,924.18
2016-12-26T02:08:48.810Z,924.15
2016-12-26T02:09:05.996Z,924.18
2016-12-26T02:09:23.195Z,924.16
2016-12-26T02:09:40.364Z,924.15
2016-12-26T02:09:57.560Z,924.19
2016-12-26T02:10:14.746Z,924.19
2016-12-26T02:10:31.960Z,924.19
2016-12-26T02:10:49.701Z,924.15
2016-12-26T02:11:06.934Z,924.18
2016-12-26T02:11:24.077Z,924.14
2016-12-26T02:11:41.278Z,924.14
2016-12-26T02:11:58.466Z,924.18
2016-12-26T02:12:15.626Z,924.23
2016-12-26T02:12:33.048Z,924.22
2016-12-26T02:12:50.244Z,924.21
2016-12-26T02:13:07.411Z,924.22
2016-12-26T02:13:24.604Z,924.24
2016-12-26T02:13:41.789Z,924.21
2016-12-26T02:13:58.934Z,924.23
2016-12-26T02:14:16.136Z,924.22
2016-12-26T02:14:33.325Z,924.23
2016-12-26T02:14:50.502Z,924.26
2016-12-26T02:15:07.690Z,924.23
2016-12-26T02:15:24.870Z,924.26
2016-12-26T02:15:42.064Z,924.27
2016-12-26T02:15:59.275Z,924.29
2016-12-26T02:16:16.468Z,924.25
2016-12-26T02:16:33.636Z,924.29
2016-12-26T02:16:50.825Z,924.29
2016-12-26T02:17:08.025Z,924.27
2016-12-26T02:17:25.203Z,924.3
2016-12-26T02:17:42.380Z,924.33
2016-12-26T02:17:59.574Z,924.3
2016-12-26T02:18:16.759Z,924.35
2016-12-26T02:18:33.897Z,924.36
2016-12-26T02:18:51.060Z,924.3
2016-12-26T02:19:08.269Z,924.32
2016-12-26T02:19:25.471Z,924.31
2016-12-26T02:19:42.635Z,924.33
2016-12-26T02:19:59.785Z,924.34
2016-12-26T02:20:16.998Z,924.38
2016-12-26T02:20:34.148Z,924.34
2016-12-26T02:20:51.318Z,924.36
2016-12-26T02:21:08.489Z,924.37
2016-12-26T02:21:25.649Z,924.39
2016-12-26T02:21:42.816Z,924.37
2016-12-26T02:21:59.985Z,924.38
2016-12-26T02:22:17.141Z,924.38
2016-12-26T02:22:34.328Z,924.37
2016-12-26T02:22:51.523Z,924.39
2016-12-26T02:23:08.728Z,924.37
2016-12-26T02:23:25.890Z,924.38
2016-12-26T02:23:43.064Z,924.37
2016-12-26T02:24:00.272Z,924.37
2016-12-26T02:24:17.443Z,924.34
2016-12-26T02:24:34.617Z,924.33
2016-12-26T02:24:51.823Z,924.33
2016-12-26T02:25:09.003Z,924.34
2016-12-26T02:25:26.181Z,924.34
2016-12-26T02:25:43.335Z,924.32
2016-12-26T02:26:00.514Z,924.31
2016-12-26T02:26:17.684Z,924.33
2016-12-26T02:26:34.861Z,924.29
2016-12-26T02:26:52.055Z,924.27
2016-12-26T02:27:09.220Z,924.25
2016-12-26T02:27:26.388Z,924.23
2016-12-26T02:27:43.584Z,924.23
2016-12-26T02:28:00.784Z,924.25
2016-12-26T02:28:17.949Z,924.25
2016-12-26T02:28:35.110Z,924.23
2016-12-26T02:28:52.302Z,924.26
2016-12-26T02:29:09.481Z,924.25
2016-12-26T02:29:26.685Z,924.23
2016-12-26T02:29:43.868Z,924.25
2016-12-26T02:30:01.078Z,924.29
2016-12-26T02:30:18.254Z,924.25
2016-12-26T02:30:35.441Z,924.25
2016-12-26T02:30:52.619Z,924.27
2016-12-26T02:31:09.792Z,924.27
2016-12-26T02:31:26.979Z,924.27
2016-12-26T02:31:44.131Z,924.29
2016-12-26T02:32:01.318Z,924.31
2016-12-26T02:32:18.484Z,924.33
2016-12-26T02:32:35.791Z,924.36
2016-12-26T02:32:52.960Z,924.33
2016-12-26T02:33:10.145Z,924.33
2016-12-26T02:33:27.339Z,924.32
2016-12-26T02:33:44.520Z,924.3
2016-12-26T02:34:02.254Z,924.31
2016-12-26T02:34:19.427Z,924.31
2016-12-26T02:34:36.587Z,924.34
2016-12-26T02:34:53.792Z,924.32
2016-12-26T02:35:10.974Z,924.35
2016-12-26T02:35:28.158Z,924.34
2016-12-26T02:35:45.917Z,924.31
2016-12-26T02:36:03.075Z,924.33
2016-12-26T02:36:20.254Z,924.34
2016-12-26T02:36:37.422Z,924.3
2016-12-26T02:36:54.609Z,924.31
2016-12-26T02:37:11.772Z,924.29
2016-12-26T02:37:28.943Z,924.28
2016-12-26T02:37:46.136Z,924.3
2016-12-26T02:38:03.334Z,924.32
2016-12-26T02:38:20.527Z,924.32
2016-12-26T02:38:37.717Z,924.3
2016-12-26T02:38:54.893Z,924.27
2016-12-26T02:39:12.057Z,924.27
2016-12-26T02:39:29.239Z,924.29
2016-12-26T02:39:46.469Z,924.28
2016-12-26T02:40:03.639Z,924.24
2016-12-26T02:40:20.807Z,924.23
2016-12-26T02:40:38.004Z,924.26
2016-12-26T02:40:55.205Z,924.25
2016-12-26T02:41:12.949Z,924.24
2016-12-26T02:41:30.102Z,924.26
2016-12-26T02:41:47.282Z,924.21
2016-12-26T02:42:05.028Z,924.21
2016-12-26T02:42:22.236Z,924.21
2016-12-26T02:42:39.425Z,924.2
2016-12-26T02:42:56.603Z,924.18
2016-12-26T02:43:13.801Z,924.17
2016-12-26T02:43:30.957Z,924.13
2016-12-26T02:43:48.144Z,924.19
2016-12-26T02:44:05.315Z,924.2
2016-12-26T02:44:22.502Z,924.16
2016-12-26T02:44:39.670Z,924.18
2016-12-26T02:44:56.840Z,924.2
2016-12-26T02:45:14.029Z,924.18
2016-12-26T02:45:31.228Z,924.17
2016-12-26T02:45:48.401Z,924.17
2016-12-26T02:46:05.562Z,924.13
2016-12-26T02:46:22.760Z,924.14
2016-12-26T02:46:39.966Z,924.13
2016-12-26T02:46:57.158Z,924.16
2016-12-26T02:47:14.332Z,924.07
2016-12-26T02:47:31.523Z,924.14
2016-12-26T02:47:48.705Z,924.08
2016-12-26T02:48:06.142Z,924.07
2016-12-26T02:48:23.692Z,924.09
2016-12-26T02:48:40.854Z,924.08
2016-12-26T02:48:58.043Z,924.1
2016-12-26T02:49:15.211Z,924.1
2016-12-26T02:49:32.405Z,924.08
2016-12-26T02:49:49.607Z,924.08
2016-12-26T02:50:06.808Z,924.07
2016-12-26T02:50:23.982Z,924.12
2016-12-26T02:50:41.158Z,924.12
2016-12-26T02:50:58.332Z,924.11
2016-12-26T02:51:16.090Z,924.12
2016-12-26T02:51:33.259Z,924.14
2016-12-26T02:51:50.457Z,924.15
2016-12-26T02:52:07.666Z,924.13
2016-12-26T02:52:24.854Z,924.14
2016-12-26T02:52:42.061Z,924.12
2016-12-26T02:52:59.223Z,924.17
2016-12-26T02:53:16.386Z,924.11
2016-12-26T02:53:33.557Z,924.14
2016-12-26T02:53:50.731Z,924.14
2016-12-26T02:54:07.890Z,924.17
2016-12-26T02:54:25.052Z,924.16
2016-12-26T02:54:42.237Z,924.17
2016-12-26T02:54:59.438Z,924.14
2016-12-26T02:55:16.654Z,924.14
2016-12-26T02:55:33.818Z,924.2
2016-12-26T02:55:51.003Z,924.18
2016-12-26T02:56:08.181Z,924.17
2016-12-26T02:56:25.384Z,924.17
2016-12-26T02:56:43.131Z,924.14
2016-12-26T02:57:00.302Z,924.18
2016-12-26T02:57:17.479Z,924.15
2016-12-26T02:57:34.672Z,924.12
2016-12-26T02:57:52.411Z,924.14
2016-12-26T02:58:09.606Z,924.16
2016-12-26T02:58:26.789Z,924.14
2016-12-26T02:58:43.971Z,924.13
2016-12-26T02:59:01.141Z,924.12
2016-12-26T02:59:18.319Z,924.1
2016-12-26T02:59:35.474Z,924.1
2016-12-26T02:59:52.658Z,924.11
2016-12-26T03:00:09.878Z,924.15
2016-12-26T03:00:27.073Z,924.1
2016-12-26T03:00:46.260Z,924.11
2016-12-26T03:01:03.411Z,924.09
2016-12-26T03:01:20.573Z,924.1
2016-12-26T03:01:37.734Z,924.08
2016-12-26T03:01:54.897Z,924.09
2016-12-26T03:02:12.085Z,924.12
2016-12-26T03:02:29.253Z,924.11
2016-12-26T03:02:46.428Z,924.12
2016-12-26T03:03:03.663Z,924.11
2016-12-26T03:03:20.836Z,924.12
2016-12-26T03:03:38.008Z,924.12
2016-12-26T03:03:55.191Z,924.08
2016-12-26T03:04:12.372Z,924.08
2016-12-26T03:04:29.539Z,924.07
2016-12-26T03:04:46.692Z,924.1
2016-12-26T03:05:03.874Z,924.12
2016-12-26T03:05:21.075Z,924.11
2016-12-26T03:05:38.238Z,924.1
2016-12-26T03:05:55.428Z,924.12
2016-12-26T03:06:12.575Z,924.09
2016-12-26T03:06:29.765Z,924.13
2016-12-26T03:06:46.932Z,924.08
2016-12-26T03:07:04.128Z,924.09
2016-12-26T03:07:21.301Z,924.1
2016-12-26T03:07:38.472Z,924.07
2016-12-26T03:07:55.640Z,924.1
2016-12-26T03:08:12.825Z,924.07
2016-12-26T03:08:30.019Z,924.06
2016-12-26T03:08:47.202Z,924.06
2016-12-26T03:09:04.409Z,924.08
2016-12-26T03:09:21.602Z,924.08
2016-12-26T03:09:38.809Z,924.1
2016-12-26T03:09:55.994Z,924.07
2016-12-26T03:10:13.170Z,924.04
2016-12-26T03:10:30.353Z,924.06
2016-12-26T03:10:47.550Z,924.01
2016-12-26T03:11:04.722Z,924.01
2016-12-26T03:11:21.916Z,924.02
2016-12-26T03:11:39.120Z,924.05
2016-12-26T03:11:56.308Z,924.05
2016-12-26T03:12:13.496Z,924.01
2016-12-26T03:12:30.988Z,924.03
2016-12-26T03:12:48.219Z,924.06
2016-12-26T03:13:05.388Z,924.01
2016-12-26T03:13:22.557Z,924.03
2016-12-26T03:13:39.724Z,924
2016-12-26T03:13:56.902Z,923.99
2016-12-26T03:14:14.069Z,923.97
2016-12-26T03:14:31.247Z,923.97
2016-12-26T03:14:48.398Z,923.99
2016-12-26T03:15:05.561Z,923.99
2016-12-26T03:15:22.736Z,924.01
2016-12-26T03:15:39.937Z,924.01
2016-12-26T03:15:57.143Z,924
2016-12-26T03:16:14.343Z,924.01
2016-12-26T03:16:31.521Z,923.96
2016-12-26T03:16:48.698Z,923.96
2016-12-26T03:17:05.901Z,923.98
2016-12-26T03:17:23.085Z,923.96
2016-12-26T03:17:40.289Z,923.96
2016-12-26T03:17:57.472Z,923.95
2016-12-26T03:18:14.640Z,923.96
2016-12-26T03:18:31.818Z,923.97
2016-12-26T03:18:49.013Z,923.95
2016-12-26T03:19:06.183Z,923.96
2016-12-26T03:19:23.374Z,923.91
2016-12-26T03:19:40.552Z,923.93
2016-12-26T03:19:57.727Z,923.97
2016-12-26T03:20:15.481Z,923.98
2016-12-26T03:20:32.638Z,923.92
2016-12-26T03:20:49.830Z,923.98
2016-12-26T03:21:07.008Z,923.95
2016-12-26T03:21:24.190Z,923.89
2016-12-26T03:21:41.375Z,923.95
2016-12-26T03:21:58.565Z,923.95
2016-12-26T03:22:15.727Z,923.91
2016-12-26T03:22:32.886Z,923.92
2016-12-26T03:22:50.052Z,923.93
2016-12-26T03:23:07.798Z,923.94
2016-12-26T03:23:24.946Z,923.95
2016-12-26T03:23:42.136Z,923.93
2016-12-26T03:23:59.367Z,923.94
2016-12-26T03:24:16.566Z,923.91
2016-12-26T03:24:33.763Z,923.9
2016-12-26T03:24:50.933Z,923.91
2016-12-26T03:25:08.652Z,923.98
2016-12-26T03:25:25.828Z,923.9
2016-12-26T03:25:43.013Z,923.92
2016-12-26T03:26:00.181Z,923.92
2016-12-26T03:26:17.366Z,923.92
2016-12-26T03:26:34.541Z,923.91
2016-12-26T03:26:51.714Z,923.89
2016-12-26T03:27:08.910Z,923.95
2016-12-26T03:27:26.097Z,923.91
2016-12-26T03:27:43.285Z,923.94
2016-12-26T03:28:00.452Z,923.95
2016-12-26T03:28:17.629Z,923.94
2016-12-26T03:28:34.791Z,923.95
2016-12-26T03:28:51.990Z,923.91
2016-12-26T03:29:09.163Z,923.93
2016-12-26T03:29:26.365Z,923.97
2016-12-26T03:29:43.507Z,923.93
2016-12-26T03:30:00.687Z,923.98
2016-12-26T03:30:17.872Z,923.95
2016-12-26T03:30:35.070Z,923.95
2016-12-26T03:30:52.274Z,923.99
2016-12-26T03:31:09.442Z,923.96
2016-12-26T03:31:26.624Z,923.98
2016-12-26T03:31:43.831Z,923.99
2016-12-26T03:32:01.012Z,923.98
2016-12-26T03:32:18.167Z,923.96
2016-12-26T03:32:35.333Z,923.96
2016-12-26T03:32:52.498Z,923.99
2016-12-26T03:33:09.670Z,923.96
2016-12-26T03:33:26.824Z,923.94
2016-12-26T03:33:44.013Z,923.97
2016-12-26T03:34:01.205Z,923.97
2016-12-26T03:34:18.387Z,923.94
2016-12-26T03:34:35.556Z,923.95
2016-12-26T03:34:52.735Z,923.95
2016-12-26T03:35:09.919Z,923.95